createdAt,value
2023-03-19T00:01:39.359Z,22.40
2023-03-19T00:03:41.137Z,22.40
2023-03-19T00:05:51.926Z,22.40
2023-03-19T00:07:53.585Z,22.40
2023-03-19T00:09:55.254Z,22.40
2023-03-19T00:11:57.024Z,22.40
2023-03-19T00:13:58.703Z,22.40
2023-03-19T00:16:00.501Z,22.40
2023-03-19T00:18:02.246Z,22.40
2023-03-19T00:20:04.955Z,22.40
2023-03-19T00:22:07.279Z,22.40
2023-03-19T00:24:09.911Z,22.40
2023-03-19T00:26:11.974Z,22.40
2023-03-19T00:28:13.714Z,22.40
2023-03-19T00:30:15.638Z,22.40
2023-03-19T00:32:17.309Z,22.40
2023-03-19T00:34:19.206Z,22.40
2023-03-19T00:36:21.573Z,22.40
2023-03-19T00:38:23.209Z,22.40
2023-03-19T00:40:25.200Z,22.40
2023-03-19T00:42:27.013Z,22.40
2023-03-19T00:44:28.768Z,22.50
2023-03-19T00:46:32.100Z,22.40
2023-03-19T00:48:33.780Z,22.40
2023-03-19T00:50:35.822Z,22.40
2023-03-19T00:52:37.477Z,22.40
2023-03-19T00:54:39.120Z,22.40
2023-03-19T00:56:41.073Z,22.40
2023-03-19T00:58:42.701Z,22.40
2023-03-19T01:00:45.277Z,22.40
2023-03-19T01:02:47.105Z,22.40
2023-03-19T01:04:49.518Z,22.40
2023-03-19T01:06:51.561Z,22.40
2023-03-19T01:08:53.202Z,22.40
2023-03-19T01:10:54.905Z,22.40
2023-03-19T01:12:56.966Z,22.40
2023-03-19T01:14:58.686Z,22.40
2023-03-19T01:17:00.867Z,22.40
2023-03-19T01:19:03.661Z,22.40
2023-03-19T01:21:05.542Z,22.40
2023-03-19T01:23:07.635Z,22.40
2023-03-19T01:25:11.193Z,22.40
2023-03-19T01:27:12.826Z,22.40
2023-03-19T01:29:14.588Z,22.40
2023-03-19T01:31:16.642Z,22.40
2023-03-19T01:33:20.633Z,22.50
2023-03-19T01:35:22.279Z,22.40
2023-03-19T01:37:24.666Z,22.40
2023-03-19T01:39:26.333Z,22.50
2023-03-19T01:41:28.154Z,22.40
2023-03-19T01:43:31.487Z,22.40
2023-03-19T01:45:36.990Z,22.40
2023-03-19T01:47:43.080Z,22.40
2023-03-19T01:49:52.389Z,22.40
2023-03-19T01:51:56.061Z,22.40
2023-03-19T01:54:00.852Z,22.40
2023-03-19T01:56:12.656Z,22.40
2023-03-19T01:58:15.028Z,22.40
2023-03-19T02:00:17.025Z,22.40
2023-03-19T02:02:28.164Z,22.40
2023-03-19T02:04:30.865Z,22.40
2023-03-19T02:06:33.288Z,22.40
2023-03-19T02:08:35.855Z,22.40
2023-03-19T02:10:37.605Z,22.40
2023-03-19T02:12:39.303Z,22.40
2023-03-19T02:14:40.970Z,22.40
2023-03-19T02:16:42.664Z,22.40
2023-03-19T02:18:44.686Z,22.40
2023-03-19T02:21:05.284Z,22.40
2023-03-19T02:23:35.080Z,22.40
2023-03-19T02:25:55.756Z,22.40
2023-03-19T02:27:57.940Z,22.40
2023-03-19T02:29:59.793Z,22.40
2023-03-19T02:32:03.601Z,22.50
2023-03-19T02:34:26.904Z,22.40
2023-03-19T02:36:33.729Z,22.40
2023-03-19T02:38:36.683Z,22.40
2023-03-19T02:40:49.322Z,22.40
2023-03-19T02:42:51.060Z,22.40
2023-03-19T02:44:52.697Z,22.40
2023-03-19T02:46:54.377Z,22.40
2023-03-19T02:48:56.003Z,22.40
2023-03-19T02:50:57.742Z,22.40
2023-03-19T02:52:59.364Z,22.40
2023-03-19T02:55:01.413Z,22.40
2023-03-19T02:57:03.836Z,22.40
2023-03-19T02:59:05.518Z,22.40
2023-03-19T03:01:07.388Z,22.40
2023-03-19T03:03:09.576Z,22.40
2023-03-19T03:05:11.250Z,22.40
2023-03-19T03:07:13.023Z,22.40
2023-03-19T03:09:14.637Z,22.40
2023-03-19T03:11:16.252Z,22.40
2023-03-19T03:13:17.852Z,22.40
2023-03-19T03:15:19.699Z,22.40
2023-03-19T03:17:21.354Z,22.40
2023-03-19T03:19:23.443Z,22.40
2023-03-19T03:21:25.504Z,22.40
2023-03-19T03:23:27.646Z,22.40
2023-03-19T03:25:30.526Z,22.40
2023-03-19T03:27:32.986Z,22.40
2023-03-19T03:29:34.697Z,22.40
2023-03-19T03:31:36.519Z,22.40
2023-03-19T03:33:38.181Z,22.40
2023-03-19T03:35:39.837Z,22.40
2023-03-19T03:37:42.292Z,22.40
2023-03-19T03:39:43.971Z,22.40
2023-03-19T03:41:45.739Z,22.40
2023-03-19T03:43:47.778Z,22.40
2023-03-19T03:45:49.685Z,22.40
2023-03-19T03:47:51.427Z,22.40
2023-03-19T03:49:53.082Z,22.40
2023-03-19T03:51:54.846Z,22.40
2023-03-19T03:53:56.626Z,22.40
2023-03-19T03:55:58.491Z,22.40
2023-03-19T03:58:00.387Z,22.40
2023-03-19T04:00:02.215Z,22.40
2023-03-19T04:02:04.035Z,22.40
2023-03-19T04:04:05.740Z,22.40
2023-03-19T04:06:07.671Z,22.40
2023-03-19T04:08:09.476Z,22.40
2023-03-19T04:10:11.960Z,22.40
2023-03-19T04:12:14.139Z,22.40
2023-03-19T04:14:16.220Z,22.40
2023-03-19T04:16:17.973Z,22.40
2023-03-19T04:18:19.585Z,22.40
2023-03-19T04:20:22.696Z,22.40
2023-03-19T04:22:24.323Z,22.40
2023-03-19T04:24:26.244Z,22.40
2023-03-19T04:26:27.904Z,22.40
2023-03-19T04:28:31.421Z,22.40
2023-03-19T04:30:35.316Z,22.40
2023-03-19T04:32:37.384Z,22.40
2023-03-19T04:34:39.062Z,22.40
2023-03-19T04:36:40.684Z,22.40
2023-03-19T04:38:42.289Z,22.40
2023-03-19T04:40:44.008Z,22.40
2023-03-19T04:42:45.881Z,22.40
2023-03-19T04:44:47.518Z,22.40
2023-03-19T04:46:49.203Z,22.40
2023-03-19T04:48:51.074Z,22.40
2023-03-19T04:50:53.228Z,22.40
2023-03-19T04:52:55.044Z,22.40
2023-03-19T04:54:56.714Z,22.40
2023-03-19T04:56:58.415Z,22.40
2023-03-19T04:59:00.019Z,22.40
2023-03-19T05:01:02.083Z,22.40
2023-03-19T05:03:03.997Z,22.40
2023-03-19T05:05:06.981Z,22.40
2023-03-19T05:07:08.690Z,22.40
2023-03-19T05:09:10.386Z,22.40
2023-03-19T05:11:12.190Z,22.40
2023-03-19T05:13:13.796Z,22.40
2023-03-19T05:15:16.420Z,22.50
2023-03-19T05:17:18.407Z,22.50
2023-03-19T05:19:20.071Z,22.50
2023-03-19T05:21:22.104Z,22.50
2023-03-19T05:23:23.855Z,22.50
2023-03-19T05:25:25.623Z,22.50
2023-03-19T05:27:27.404Z,22.50
2023-03-19T05:29:29.056Z,22.50
2023-03-19T05:31:31.032Z,22.50
2023-03-19T05:33:33.588Z,22.50
2023-03-19T05:35:36.829Z,22.50
2023-03-19T05:37:39.165Z,22.60
2023-03-19T05:39:40.759Z,22.60
2023-03-19T05:41:42.484Z,22.60
2023-03-19T05:43:44.114Z,22.60
2023-03-19T05:45:51.787Z,22.60
2023-03-19T05:47:53.740Z,22.50
2023-03-19T05:49:55.453Z,22.60
2023-03-19T05:51:57.084Z,22.60
2023-03-19T05:53:58.741Z,22.60
2023-03-19T05:56:00.334Z,22.50
2023-03-19T05:58:01.997Z,22.60
2023-03-19T06:00:06.644Z,22.60
2023-03-19T06:02:08.672Z,22.60
2023-03-19T06:04:10.441Z,22.60
2023-03-19T06:06:12.297Z,22.60
2023-03-19T06:08:13.905Z,22.60
2023-03-19T06:10:15.821Z,22.60
2023-03-19T06:12:17.546Z,22.60
2023-03-19T06:14:19.178Z,22.60
2023-03-19T06:16:21.048Z,22.60
2023-03-19T06:18:23.550Z,22.60
2023-03-19T06:20:25.832Z,22.60
2023-03-19T06:22:27.725Z,22.60
2023-03-19T06:24:30.473Z,22.60
2023-03-19T06:26:33.830Z,22.60
2023-03-19T06:28:35.685Z,22.60
2023-03-19T06:30:37.469Z,22.60
2023-03-19T06:32:39.176Z,22.60
2023-03-19T06:34:41.070Z,22.60
2023-03-19T06:36:42.759Z,22.60
2023-03-19T06:38:44.487Z,22.60
2023-03-19T06:40:46.101Z,22.60
2023-03-19T06:42:47.923Z,22.60
2023-03-19T06:44:51.788Z,22.60
2023-03-19T06:46:55.092Z,22.60
2023-03-19T06:48:57.280Z,22.70
2023-03-19T06:50:59.239Z,22.60
2023-03-19T06:53:02.223Z,22.60
2023-03-19T06:55:05.268Z,22.60
2023-03-19T06:57:07.013Z,22.60
2023-03-19T06:59:12.311Z,22.60
2023-03-19T07:01:14.163Z,22.70
2023-03-19T07:03:15.828Z,22.70
2023-03-19T07:05:17.546Z,22.70
2023-03-19T07:07:19.533Z,22.70
2023-03-19T07:09:21.305Z,22.70
2023-03-19T07:11:22.900Z,22.70
2023-03-19T07:13:24.622Z,22.60
2023-03-19T07:15:26.276Z,22.60
2023-03-19T07:17:27.938Z,22.70
2023-03-19T07:19:29.599Z,22.70
2023-03-19T07:21:32.042Z,22.70
2023-03-19T07:23:33.728Z,22.70
2023-03-19T07:25:35.451Z,22.70
2023-03-19T07:27:37.117Z,22.70
2023-03-19T07:29:38.949Z,22.70
2023-03-19T07:31:40.956Z,22.70
2023-03-19T07:33:42.686Z,22.70
2023-03-19T07:35:44.381Z,22.70
2023-03-19T07:37:46.766Z,22.70
2023-03-19T07:39:48.610Z,22.70
2023-03-19T07:41:50.464Z,22.70
2023-03-19T07:43:52.079Z,22.70
2023-03-19T07:45:53.984Z,22.70
2023-03-19T07:47:55.889Z,22.70
2023-03-19T07:49:58.296Z,22.70
2023-03-19T07:51:59.969Z,22.70
2023-03-19T07:54:01.591Z,22.70
2023-03-19T07:56:03.291Z,22.70
2023-03-19T07:58:04.934Z,22.70
2023-03-19T08:00:08.109Z,22.70
2023-03-19T08:02:13.449Z,22.60
2023-03-19T08:04:15.138Z,22.60
2023-03-19T08:06:16.785Z,22.70
2023-03-19T08:08:19.178Z,22.70
2023-03-19T08:10:21.834Z,22.70
2023-03-19T08:12:23.983Z,22.70
2023-03-19T08:14:25.850Z,22.70
2023-03-19T08:16:27.836Z,22.70
2023-03-19T08:18:29.498Z,22.70
2023-03-19T08:20:31.762Z,22.70
2023-03-19T08:22:34.400Z,22.70
2023-03-19T08:24:36.284Z,22.70
2023-03-19T08:26:37.942Z,22.80
2023-03-19T08:28:39.585Z,22.80
2023-03-19T08:30:41.315Z,22.80
2023-03-19T08:32:44.827Z,22.80
2023-03-19T08:34:49.387Z,22.80
2023-03-19T08:36:51.438Z,22.80
2023-03-19T08:38:54.766Z,22.80
2023-03-19T08:41:02.085Z,22.80
2023-03-19T08:43:04.053Z,22.80
2023-03-19T08:45:06.273Z,22.80
2023-03-19T08:47:07.988Z,22.80
2023-03-19T08:49:09.660Z,22.80
2023-03-19T08:51:11.507Z,22.80
2023-03-19T08:53:13.105Z,22.80
2023-03-19T08:55:14.796Z,22.80
2023-03-19T08:57:16.422Z,22.80
2023-03-19T08:59:18.053Z,22.90
2023-03-19T09:01:19.725Z,22.90
2023-03-19T09:03:21.792Z,22.90
2023-03-19T09:05:24.196Z,22.90
2023-03-19T09:07:25.994Z,22.90
2023-03-19T09:09:27.738Z,22.90
2023-03-19T09:11:29.922Z,22.90
2023-03-19T09:13:32.311Z,22.90
2023-03-19T09:15:34.112Z,22.90
2023-03-19T09:17:36.105Z,22.90
2023-03-19T09:19:37.964Z,22.90
2023-03-19T09:21:39.911Z,22.90
2023-03-19T09:23:41.535Z,22.90
2023-03-19T09:25:43.242Z,22.90
2023-03-19T09:27:44.879Z,23.00
2023-03-19T09:29:46.645Z,23.00
2023-03-19T09:31:48.300Z,23.00
2023-03-19T09:33:50.653Z,23.00
2023-03-19T09:35:54.069Z,23.00
2023-03-19T09:37:55.762Z,23.00
2023-03-19T09:39:57.462Z,23.00
2023-03-19T09:42:30.686Z,23.00
2023-03-19T09:44:39.801Z,23.00
2023-03-19T09:46:48.751Z,23.00
2023-03-19T09:48:59.854Z,23.00
2023-03-19T09:51:02.490Z,23.00
2023-03-19T09:53:15.818Z,23.00
2023-03-19T09:55:49.480Z,23.00
2023-03-19T09:57:55.741Z,23.00
2023-03-19T09:59:57.501Z,23.00
2023-03-19T10:02:22.117Z,23.00
2023-03-19T10:04:32.678Z,23.10
2023-03-19T10:06:36.715Z,23.10
2023-03-19T10:09:03.260Z,23.10
2023-03-19T10:11:29.643Z,23.10
2023-03-19T10:14:01.363Z,23.10
2023-03-19T10:16:05.660Z,23.10
2023-03-19T10:18:18.537Z,23.10
2023-03-19T10:20:57.818Z,23.10
2023-03-19T10:23:08.663Z,23.10
2023-03-19T10:25:17.154Z,23.10
2023-03-19T10:27:23.057Z,23.10
2023-03-19T10:29:25.937Z,23.10
2023-03-19T10:31:56.179Z,23.10
2023-03-19T10:34:34.792Z,23.10
2023-03-19T10:36:37.368Z,23.10
2023-03-19T10:38:44.005Z,23.10
2023-03-19T10:41:04.054Z,23.10
2023-03-19T10:43:15.798Z,23.10
2023-03-19T10:45:33.237Z,23.10
2023-03-19T10:47:39.601Z,23.10
2023-03-19T10:49:42.078Z,23.10
2023-03-19T10:51:46.163Z,23.20
2023-03-19T10:53:47.943Z,23.20
2023-03-19T10:56:18.989Z,23.10
2023-03-19T10:58:25.202Z,23.20
2023-03-19T11:00:32.319Z,23.20
2023-03-19T11:02:36.525Z,23.20
2023-03-19T11:04:38.179Z,23.20
2023-03-19T11:06:40.401Z,23.20
2023-03-19T11:08:42.096Z,23.20
2023-03-19T11:10:49.398Z,23.20
2023-03-19T11:13:15.935Z,23.20
2023-03-19T11:15:22.869Z,23.20
2023-03-19T11:17:49.150Z,23.20
2023-03-19T11:19:54.445Z,23.20
2023-03-19T11:22:10.013Z,23.20
2023-03-19T11:24:12.983Z,23.20
2023-03-19T11:26:19.586Z,23.20
2023-03-19T11:28:26.363Z,23.20
2023-03-19T11:30:38.149Z,23.20
2023-03-19T11:33:17.113Z,23.20
2023-03-19T11:35:25.626Z,23.20
2023-03-19T11:37:50.282Z,23.20
2023-03-19T11:40:11.923Z,23.20
2023-03-19T11:42:28.680Z,23.20
2023-03-19T11:44:42.353Z,23.20
2023-03-19T11:47:26.479Z,23.20
2023-03-19T11:49:47.382Z,23.20
2023-03-19T11:52:00.574Z,23.30
2023-03-19T11:54:06.639Z,23.20
2023-03-19T11:56:35.741Z,23.20
2023-03-19T11:59:16.481Z,23.20
2023-03-19T12:01:49.048Z,23.20
2023-03-19T12:04:10.944Z,23.20
2023-03-19T12:07:10.084Z,23.20
2023-03-19T12:09:34.341Z,23.20
2023-03-19T12:11:41.704Z,23.20
2023-03-19T12:13:57.919Z,23.30
2023-03-19T12:16:05.569Z,23.30
2023-03-19T12:18:59.714Z,23.20
2023-03-19T12:21:13.489Z,23.20
2023-03-19T12:23:29.392Z,23.20
2023-03-19T12:25:47.364Z,23.20
2023-03-19T12:28:04.797Z,23.20
2023-03-19T12:30:19.140Z,23.20
2023-03-19T12:32:42.153Z,23.20
2023-03-19T12:34:51.117Z,23.20
2023-03-19T12:37:06.990Z,23.20
2023-03-19T12:39:15.526Z,23.20
2023-03-19T12:41:23.399Z,23.20
2023-03-19T12:43:32.065Z,23.20
2023-03-19T12:45:41.164Z,23.30
2023-03-19T12:47:45.382Z,23.30
2023-03-19T12:49:54.848Z,23.30
2023-03-19T12:52:04.979Z,23.30
2023-03-19T12:54:13.957Z,23.30
2023-03-19T12:56:32.628Z,23.30
2023-03-19T12:58:46.098Z,23.30
2023-03-19T13:01:08.898Z,23.30
2023-03-19T13:03:18.756Z,23.30
2023-03-19T13:05:43.449Z,23.30
2023-03-19T13:08:16.758Z,23.40
2023-03-19T13:10:20.573Z,23.30
2023-03-19T13:12:30.836Z,23.30
2023-03-19T13:14:50.056Z,23.30
2023-03-19T13:16:59.410Z,23.40
2023-03-19T13:19:23.480Z,23.40
2023-03-19T13:21:28.888Z,23.30
2023-03-19T13:23:34.908Z,23.40
2023-03-19T13:25:46.025Z,23.40
2023-03-19T13:27:54.030Z,23.40
2023-03-19T13:30:10.930Z,23.30
2023-03-19T13:32:38.492Z,23.30
2023-03-19T13:34:40.737Z,23.30
2023-03-19T13:36:43.399Z,23.30
2023-03-19T13:38:48.860Z,23.30
2023-03-19T13:40:58.563Z,23.30
2023-03-19T13:43:00.298Z,23.30
2023-03-19T13:45:34.684Z,23.30
2023-03-19T13:47:42.447Z,23.30
2023-03-19T13:50:02.360Z,23.30
2023-03-19T13:52:24.027Z,23.30
2023-03-19T13:54:40.462Z,23.20
2023-03-19T13:57:04.401Z,23.30
2023-03-19T13:59:36.221Z,23.30
2023-03-19T14:01:39.336Z,23.30
2023-03-19T14:03:59.011Z,23.20
2023-03-19T14:06:01.720Z,23.20
2023-03-19T14:08:20.592Z,23.30
2023-03-19T14:10:28.362Z,23.30
2023-03-19T14:12:38.859Z,23.30
2023-03-19T14:15:17.860Z,23.20
2023-03-19T14:17:30.855Z,23.30
2023-03-19T14:19:41.440Z,23.30
2023-03-19T14:22:07.922Z,23.30
2023-03-19T14:24:55.687Z,23.30
2023-03-19T14:26:58.032Z,23.30
2023-03-19T14:29:06.164Z,23.30
2023-03-19T14:31:31.170Z,23.30
2023-03-19T14:33:38.209Z,23.30
2023-03-19T14:35:42.899Z,23.30
2023-03-19T14:37:49.095Z,23.30
2023-03-19T14:39:59.132Z,23.30
2023-03-19T14:42:08.441Z,23.30
2023-03-19T14:44:29.048Z,23.30
2023-03-19T14:47:03.324Z,23.30
2023-03-19T14:49:21.001Z,23.30
2023-03-19T14:51:43.721Z,23.30
2023-03-19T14:54:03.334Z,23.30
2023-03-19T14:56:41.169Z,23.30
2023-03-19T14:58:51.290Z,23.30
2023-03-19T15:00:55.463Z,23.30
2023-03-19T15:02:57.234Z,23.30
2023-03-19T15:05:00.976Z,23.30
2023-03-19T15:07:02.672Z,23.30
2023-03-19T15:09:15.735Z,23.30
2023-03-19T15:11:48.018Z,23.30
2023-03-19T15:14:37.827Z,23.30
2023-03-19T15:16:54.868Z,23.30
2023-03-19T15:18:56.928Z,23.30
2023-03-19T15:20:59.190Z,23.30
2023-03-19T15:23:05.806Z,23.30
2023-03-19T15:25:14.963Z,23.30
2023-03-19T15:27:18.413Z,23.30
2023-03-19T15:29:32.124Z,23.30
2023-03-19T15:31:52.792Z,23.30
2023-03-19T15:34:25.381Z,23.30
2023-03-19T15:36:33.217Z,23.30
2023-03-19T15:38:47.590Z,23.30
2023-03-19T15:40:49.984Z,23.30
2023-03-19T15:42:52.519Z,23.30
2023-03-19T15:45:07.400Z,23.30
2023-03-19T15:47:14.204Z,23.30
2023-03-19T15:49:20.225Z,23.30
2023-03-19T15:51:23.301Z,23.30
2023-03-19T15:53:27.803Z,23.30
2023-03-19T15:55:30.279Z,23.30
2023-03-19T15:57:32.273Z,23.30
2023-03-19T15:59:34.268Z,23.30
2023-03-19T16:01:36.218Z,23.20
2023-03-19T16:03:46.383Z,23.20
2023-03-19T16:06:12.167Z,23.20
2023-03-19T16:08:22.308Z,23.20
2023-03-19T16:10:48.398Z,23.20
2023-03-19T16:12:50.983Z,23.20
2023-03-19T16:14:52.664Z,23.20
2023-03-19T16:17:03.333Z,23.20
2023-03-19T16:19:05.735Z,23.20
2023-03-19T16:21:13.035Z,23.20
2023-03-19T16:23:17.785Z,23.20
2023-03-19T16:25:20.595Z,23.20
2023-03-19T16:27:36.977Z,23.10
2023-03-19T16:29:45.642Z,23.20
2023-03-19T16:31:52.890Z,23.10
2023-03-19T16:33:55.088Z,23.20
2023-03-19T16:35:56.798Z,23.20
2023-03-19T16:38:22.162Z,23.20
2023-03-19T16:40:23.820Z,23.20
2023-03-19T16:42:34.641Z,23.10
2023-03-19T16:44:41.398Z,23.10
2023-03-19T16:46:43.409Z,23.10
2023-03-19T16:48:45.333Z,23.10
2023-03-19T16:50:47.443Z,23.10
2023-03-19T16:52:49.985Z,23.10
2023-03-19T16:54:52.160Z,23.10
2023-03-19T16:56:54.364Z,23.10
2023-03-19T16:58:56.244Z,23.10
2023-03-19T17:00:58.770Z,23.10
2023-03-19T17:03:00.978Z,23.10
2023-03-19T17:05:02.756Z,23.10
2023-03-19T17:07:04.689Z,23.10
2023-03-19T17:09:07.068Z,23.10
2023-03-19T17:11:29.043Z,23.10
2023-03-19T17:13:32.277Z,23.10
2023-03-19T17:15:40.500Z,23.10
2023-03-19T17:17:42.151Z,23.10
2023-03-19T17:19:45.358Z,23.00
2023-03-19T17:21:53.466Z,23.00
2023-03-19T17:23:56.879Z,23.00
2023-03-19T17:25:59.064Z,23.10
2023-03-19T17:28:00.857Z,23.10
2023-03-19T17:30:02.511Z,23.10
2023-03-19T17:32:07.789Z,23.00
2023-03-19T17:34:17.665Z,23.00
2023-03-19T17:36:19.552Z,23.10
2023-03-19T17:38:23.229Z,23.10
2023-03-19T17:40:27.617Z,23.10
2023-03-19T17:42:30.386Z,23.10
2023-03-19T17:44:32.113Z,23.10
2023-03-19T17:46:44.168Z,23.10
2023-03-19T17:48:47.189Z,23.10
2023-03-19T17:50:50.251Z,23.10
2023-03-19T17:52:55.096Z,23.10
2023-03-19T17:54:56.748Z,23.10
2023-03-19T17:56:58.420Z,23.10
2023-03-19T17:59:00.041Z,23.10
2023-03-19T18:01:01.972Z,23.10
2023-03-19T18:03:03.730Z,23.10
2023-03-19T18:05:07.332Z,23.10
2023-03-19T18:07:10.278Z,23.10
2023-03-19T18:09:28.305Z,23.10
2023-03-19T18:11:30.136Z,23.20
2023-03-19T18:13:31.807Z,23.20
2023-03-19T18:15:34.487Z,23.10
2023-03-19T18:17:36.493Z,23.10
2023-03-19T18:19:38.945Z,23.10
2023-03-19T18:21:41.164Z,23.10
2023-03-19T18:23:43.621Z,23.10
2023-03-19T18:25:46.193Z,23.10
2023-03-19T18:27:48.685Z,23.10
2023-03-19T18:29:51.070Z,23.10
2023-03-19T18:31:53.118Z,23.20
2023-03-19T18:33:58.446Z,23.10
2023-03-19T18:36:01.974Z,23.20
2023-03-19T18:38:04.279Z,23.20
2023-03-19T18:40:06.524Z,23.20
2023-03-19T18:42:11.974Z,23.10
2023-03-19T18:44:13.801Z,23.20
2023-03-19T18:46:21.122Z,23.10
2023-03-19T18:48:31.999Z,23.10
2023-03-19T18:50:33.889Z,23.20
2023-03-19T18:52:35.851Z,23.20
2023-03-19T18:54:37.601Z,23.10
2023-03-19T18:56:39.310Z,23.20
2023-03-19T18:58:41.044Z,23.20
2023-03-19T19:00:42.745Z,23.10
2023-03-19T19:02:46.332Z,23.10
2023-03-19T19:04:48.356Z,23.10
2023-03-19T19:06:50.009Z,23.10
2023-03-19T19:08:51.774Z,23.10
2023-03-19T19:10:56.644Z,23.10
2023-03-19T19:12:59.287Z,23.10
2023-03-19T19:15:04.970Z,23.10
2023-03-19T19:17:10.009Z,23.10
2023-03-19T19:19:17.706Z,23.00
2023-03-19T19:21:19.412Z,22.80
2023-03-19T19:23:22.041Z,22.90
2023-03-19T19:25:28.492Z,23.00
2023-03-19T19:27:30.706Z,23.00
2023-03-19T19:29:32.449Z,23.00
2023-03-19T19:31:35.880Z,23.10
2023-03-19T19:33:37.759Z,23.10
2023-03-19T19:35:39.523Z,23.10
2023-03-19T19:37:41.165Z,23.10
2023-03-19T19:39:42.774Z,23.10
2023-03-19T19:41:45.121Z,23.10
2023-03-19T19:43:47.532Z,23.10
2023-03-19T19:45:52.617Z,23.10
2023-03-19T19:47:54.713Z,23.10
2023-03-19T19:49:56.802Z,23.10
2023-03-19T19:51:58.467Z,23.10
2023-03-19T19:54:00.847Z,23.20
2023-03-19T19:56:21.465Z,23.10
2023-03-19T19:58:31.443Z,23.10
2023-03-19T20:00:33.589Z,23.10
2023-03-19T20:02:35.269Z,23.10
2023-03-19T20:04:36.914Z,23.10
2023-03-19T20:06:41.205Z,23.10
2023-03-19T20:08:43.835Z,23.10
2023-03-19T20:10:46.588Z,23.20
2023-03-19T20:12:51.401Z,23.20
2023-03-19T20:14:53.436Z,23.20
2023-03-19T20:16:55.135Z,23.10
2023-03-19T20:18:56.864Z,23.20
2023-03-19T20:20:59.605Z,23.10
2023-03-19T20:23:02.161Z,23.20
2023-03-19T20:25:04.170Z,23.20
2023-03-19T20:27:16.861Z,23.10
2023-03-19T20:29:18.657Z,23.10
2023-03-19T20:31:30.984Z,23.20
2023-03-19T20:33:34.407Z,23.10
2023-03-19T20:35:37.069Z,23.10
2023-03-19T20:37:38.989Z,23.10
2023-03-19T20:39:40.882Z,23.10
2023-03-19T20:41:43.358Z,23.10
2023-03-19T20:43:45.312Z,23.10
2023-03-19T20:45:47.012Z,23.10
2023-03-19T20:47:51.881Z,23.10
2023-03-19T20:49:53.903Z,23.10
2023-03-19T20:51:55.914Z,23.10
2023-03-19T20:53:58.726Z,23.10
2023-03-19T20:56:02.959Z,23.10
2023-03-19T20:58:29.611Z,23.10
2023-03-19T21:00:33.969Z,23.10
2023-03-19T21:02:35.747Z,23.10
2023-03-19T21:04:37.444Z,23.10
2023-03-19T21:06:52.589Z,23.10
2023-03-19T21:08:58.688Z,23.10
2023-03-19T21:11:00.685Z,23.10
2023-03-19T21:13:03.327Z,23.10
2023-03-19T21:15:06.444Z,23.00
2023-03-19T21:17:08.135Z,23.00
2023-03-19T21:19:09.792Z,23.10
2023-03-19T21:21:14.667Z,23.00
2023-03-19T21:23:19.115Z,23.00
2023-03-19T21:25:27.989Z,23.00
2023-03-19T21:27:30.300Z,23.00
2023-03-19T21:29:34.122Z,23.00
2023-03-19T21:31:35.972Z,23.00
2023-03-19T21:33:37.852Z,23.00
2023-03-19T21:35:39.580Z,23.00
2023-03-19T21:37:41.441Z,23.00
2023-03-19T21:39:43.536Z,23.00
2023-03-19T21:41:46.380Z,23.00
2023-03-19T21:43:53.839Z,23.00
2023-03-19T21:45:56.550Z,23.00
2023-03-19T21:48:23.361Z,23.00
2023-03-19T21:50:25.350Z,23.00
2023-03-19T21:52:27.251Z,23.00
2023-03-19T21:54:28.963Z,23.00
2023-03-19T21:56:35.419Z,22.90
2023-03-19T21:58:37.192Z,22.90
2023-03-19T22:00:39.074Z,22.90
2023-03-19T22:02:46.719Z,22.90
2023-03-19T22:04:48.757Z,22.90
2023-03-19T22:06:50.510Z,22.90
2023-03-19T22:08:56.172Z,22.90
2023-03-19T22:10:59.873Z,22.90
2023-03-19T22:13:01.585Z,22.90
2023-03-19T22:15:05.452Z,22.90
2023-03-19T22:17:09.732Z,22.90
2023-03-19T22:19:16.163Z,22.90
2023-03-19T22:21:20.592Z,22.90
2023-03-19T22:23:22.333Z,22.90
2023-03-19T22:25:32.050Z,22.90
2023-03-19T22:27:33.703Z,22.90
2023-03-19T22:29:35.527Z,22.90
2023-03-19T22:31:37.296Z,22.90
2023-03-19T22:33:39.163Z,22.90
2023-03-19T22:35:40.978Z,22.90
2023-03-19T22:37:42.745Z,22.90
2023-03-19T22:39:44.377Z,22.90
2023-03-19T22:41:48.468Z,22.90
2023-03-19T22:43:50.321Z,22.90
2023-03-19T22:45:59.636Z,22.90
2023-03-19T22:48:01.579Z,22.90
2023-03-19T22:50:05.247Z,22.90
2023-03-19T22:52:07.174Z,22.90
2023-03-19T22:54:11.001Z,22.90
2023-03-19T22:56:14.067Z,22.80
2023-03-19T22:58:15.986Z,22.80
2023-03-19T23:00:21.114Z,22.80
2023-03-19T23:02:22.762Z,22.80
2023-03-19T23:04:28.305Z,22.80
2023-03-19T23:06:31.092Z,22.80
2023-03-19T23:08:32.932Z,22.80
2023-03-19T23:10:35.869Z,22.80
2023-03-19T23:12:37.766Z,22.80
2023-03-19T23:14:39.401Z,22.80
2023-03-19T23:16:43.436Z,22.80
2023-03-19T23:18:45.215Z,22.80
2023-03-19T23:20:47.709Z,22.80
2023-03-19T23:22:49.435Z,22.80
2023-03-19T23:24:51.118Z,22.80
2023-03-19T23:26:54.823Z,22.80
2023-03-19T23:29:00.915Z,22.80
2023-03-19T23:31:02.969Z,22.80
2023-03-19T23:33:04.817Z,22.80
2023-03-19T23:35:18.901Z,22.80
2023-03-19T23:37:20.530Z,22.80
2023-03-19T23:39:22.226Z,22.80
2023-03-19T23:41:25.819Z,22.80
2023-03-19T23:43:29.096Z,22.70
2023-03-19T23:45:42.665Z,22.80
2023-03-19T23:47:44.281Z,22.80
2023-03-19T23:49:45.924Z,22.80
2023-03-19T23:51:47.793Z,22.80
2023-03-19T23:53:49.518Z,22.80
2023-03-19T23:55:59.613Z,22.80
2023-03-19T23:58:01.915Z,22.80
